createdAt,value
2022-08-21T00:00:52.208Z,17.60
2022-08-21T00:03:21.854Z,17.60
2022-08-21T00:05:52.876Z,17.50
2022-08-21T00:08:22.499Z,17.50
2022-08-21T00:10:50.764Z,17.40
2022-08-21T00:13:20.632Z,17.40
2022-08-21T00:15:49.925Z,17.40
2022-08-21T00:18:18.799Z,17.40
2022-08-21T00:20:48.947Z,17.40
2022-08-21T00:23:17.860Z,17.30
2022-08-21T00:25:46.786Z,17.30
2022-08-21T00:28:15.603Z,17.30
2022-08-21T00:30:44.845Z,17.30
2022-08-21T00:33:13.321Z,17.20
2022-08-21T00:35:44.426Z,17.20
2022-08-21T00:38:14.101Z,17.20
2022-08-21T00:40:46.302Z,17.10
2022-08-21T00:43:17.326Z,17.10
2022-08-21T00:45:45.750Z,17.10
2022-08-21T00:48:13.962Z,17.10
2022-08-21T00:50:46.446Z,17.00
2022-08-21T00:53:16.884Z,17.00
2022-08-21T00:55:45.551Z,17.00
2022-08-21T00:58:17.324Z,17.00
2022-08-21T01:00:49.057Z,17.00
2022-08-21T01:03:19.841Z,16.90
2022-08-21T01:05:52.262Z,16.90
2022-08-21T01:08:22.879Z,16.80
2022-08-21T01:10:54.613Z,16.80
2022-08-21T01:13:29.028Z,16.80
2022-08-21T01:16:01.444Z,16.80
2022-08-21T01:18:29.779Z,16.80
2022-08-21T01:21:12.655Z,16.70
2022-08-21T01:23:44.001Z,16.70
2022-08-21T01:26:13.374Z,16.70
2022-08-21T01:28:46.733Z,16.70
2022-08-21T01:31:17.313Z,16.60
2022-08-21T01:33:53.871Z,16.60
2022-08-21T01:36:24.147Z,16.60
2022-08-21T01:38:52.525Z,16.60
2022-08-21T01:41:20.694Z,16.50
2022-08-21T01:43:48.815Z,16.50
2022-08-21T01:46:17.177Z,16.50
2022-08-21T01:48:45.576Z,16.50
2022-08-21T01:51:13.756Z,16.50
2022-08-21T01:53:43.567Z,16.40
2022-08-21T01:56:14.890Z,16.40
2022-08-21T01:58:44.421Z,16.40
2022-08-21T02:01:12.791Z,16.40
2022-08-21T02:03:42.598Z,16.40
2022-08-21T02:06:15.868Z,16.30
2022-08-21T02:08:45.833Z,16.30
2022-08-21T02:11:13.945Z,16.30
2022-08-21T02:13:42.119Z,16.30
2022-08-21T02:16:10.716Z,16.30
2022-08-21T02:18:39.096Z,16.30
2022-08-21T02:21:08.544Z,16.20
2022-08-21T02:23:37.088Z,16.20
2022-08-21T02:26:09.240Z,16.20
2022-08-21T02:28:37.933Z,16.20
2022-08-21T02:31:07.385Z,16.10
2022-08-21T02:33:35.642Z,16.10
2022-08-21T02:36:05.120Z,16.10
2022-08-21T02:38:38.706Z,16.10
2022-08-21T02:41:10.598Z,16.00
2022-08-21T02:43:38.777Z,16.00
2022-08-21T02:46:08.216Z,16.00
2022-08-21T02:48:37.752Z,16.00
2022-08-21T02:51:08.553Z,16.00
2022-08-21T02:53:37.060Z,16.00
2022-08-21T02:56:07.725Z,15.90
2022-08-21T02:58:39.593Z,15.90
2022-08-21T03:01:10.326Z,15.90
2022-08-21T03:03:40.500Z,15.90
2022-08-21T03:06:10.440Z,15.90
2022-08-21T03:08:38.741Z,15.90
2022-08-21T03:11:07.757Z,15.90
2022-08-21T03:13:39.923Z,15.90
2022-08-21T03:16:10.014Z,15.90
2022-08-21T03:18:38.903Z,15.90
2022-08-21T03:21:08.684Z,15.90
2022-08-21T03:23:36.939Z,15.80
2022-08-21T03:26:06.642Z,15.80
2022-08-21T03:28:36.156Z,15.80
2022-08-21T03:31:06.595Z,15.80
2022-08-21T03:33:34.917Z,15.80
2022-08-21T03:36:05.858Z,15.80
2022-08-21T03:38:35.600Z,15.70
2022-08-21T03:41:03.893Z,15.70
2022-08-21T03:43:32.618Z,15.70
2022-08-21T03:46:02.366Z,15.70
2022-08-21T03:48:31.977Z,15.70
2022-08-21T03:51:00.462Z,15.70
2022-08-21T03:53:29.151Z,15.70
2022-08-21T03:55:57.279Z,15.70
2022-08-21T03:58:28.233Z,15.70
2022-08-21T04:00:59.386Z,15.70
2022-08-21T04:03:28.871Z,15.70
2022-08-21T04:05:58.585Z,15.70
2022-08-21T04:08:26.793Z,15.70
2022-08-21T04:10:57.280Z,15.70
2022-08-21T04:13:25.395Z,15.70
2022-08-21T04:15:53.452Z,15.70
2022-08-21T04:18:21.576Z,15.70
2022-08-21T04:20:53.312Z,15.70
2022-08-21T04:23:25.384Z,15.70
2022-08-21T04:25:54.909Z,15.70
2022-08-21T04:28:23.624Z,15.70
2022-08-21T04:30:57.391Z,15.60
2022-08-21T04:33:26.246Z,15.70
2022-08-21T04:35:54.512Z,15.60
2022-08-21T04:38:24.074Z,15.60
2022-08-21T04:40:53.381Z,15.60
2022-08-21T04:43:22.497Z,15.60
2022-08-21T04:45:52.431Z,15.60
2022-08-21T04:48:22.788Z,15.50
2022-08-21T04:50:54.621Z,15.50
2022-08-21T04:53:28.554Z,15.60
2022-08-21T04:55:58.395Z,15.50
2022-08-21T04:58:28.984Z,15.50
2022-08-21T05:00:59.702Z,15.60
2022-08-21T05:03:28.858Z,15.60
2022-08-21T05:05:57.249Z,15.50
2022-08-21T05:08:29.759Z,15.60
2022-08-21T05:11:00.705Z,15.60
2022-08-21T05:13:29.656Z,15.50
2022-08-21T05:15:58.001Z,15.60
2022-08-21T05:18:26.220Z,15.60
2022-08-21T05:20:54.412Z,15.60
2022-08-21T05:23:22.579Z,15.60
2022-08-21T05:25:52.073Z,15.60
2022-08-21T05:28:20.895Z,15.60
2022-08-21T05:30:49.604Z,15.60
2022-08-21T05:33:17.848Z,15.60
2022-08-21T05:35:46.041Z,15.70
2022-08-21T05:38:16.901Z,15.70
2022-08-21T05:40:47.206Z,15.70
2022-08-21T05:43:17.475Z,15.70
2022-08-21T05:45:45.590Z,15.70
2022-08-21T05:48:17.577Z,15.70
2022-08-21T05:50:47.313Z,15.80
2022-08-21T05:53:16.361Z,15.80
2022-08-21T05:55:46.583Z,15.80
2022-08-21T05:58:18.451Z,15.90
2022-08-21T06:00:48.574Z,15.90
2022-08-21T06:03:19.911Z,16.00
2022-08-21T06:05:48.432Z,16.10
2022-08-21T06:08:17.124Z,16.20
2022-08-21T06:10:45.829Z,16.40
2022-08-21T06:13:14.700Z,16.60
2022-08-21T06:15:44.629Z,16.90
2022-08-21T06:18:13.250Z,17.10
2022-08-21T06:20:41.845Z,17.40
2022-08-21T06:23:10.031Z,17.60
2022-08-21T06:25:38.214Z,17.90
2022-08-21T06:28:08.173Z,18.20
2022-08-21T06:30:37.693Z,18.40
2022-08-21T06:33:08.114Z,18.70
2022-08-21T06:35:37.325Z,18.90
2022-08-21T06:38:10.100Z,19.20
2022-08-21T06:40:43.775Z,19.40
2022-08-21T06:43:18.397Z,19.70
2022-08-21T06:45:47.263Z,20.00
2022-08-21T06:48:19.285Z,20.20
2022-08-21T06:50:48.197Z,20.40
2022-08-21T06:53:19.290Z,20.60
2022-08-21T06:55:48.038Z,20.90
2022-08-21T06:58:17.441Z,21.10
2022-08-21T07:00:49.416Z,21.30
2022-08-21T07:03:25.205Z,21.50
2022-08-21T07:05:53.541Z,21.70
2022-08-21T07:08:22.313Z,21.90
2022-08-21T07:10:51.132Z,22.10
2022-08-21T07:13:19.775Z,22.30
2022-08-21T07:15:47.909Z,22.50
2022-08-21T07:18:16.035Z,22.70
2022-08-21T07:20:45.798Z,22.90
2022-08-21T07:23:20.326Z,23.00
2022-08-21T07:25:48.443Z,23.20
2022-08-21T07:28:16.590Z,23.30
2022-08-21T07:30:45.386Z,23.40
2022-08-21T07:33:13.773Z,23.50
2022-08-21T07:35:41.892Z,23.60
2022-08-21T07:38:11.555Z,23.70
2022-08-21T07:40:39.817Z,23.70
2022-08-21T07:43:08.117Z,23.70
2022-08-21T07:45:36.330Z,23.80
2022-08-21T07:48:05.011Z,23.80
2022-08-21T07:50:33.347Z,23.90
2022-08-21T07:53:01.590Z,24.00
2022-08-21T07:55:31.245Z,24.00
2022-08-21T07:57:59.390Z,24.10
2022-08-21T08:00:29.529Z,24.10
2022-08-21T08:02:58.855Z,24.20
2022-08-21T08:05:30.114Z,24.20
2022-08-21T08:07:58.470Z,24.20
2022-08-21T08:10:27.422Z,24.20
2022-08-21T08:12:57.283Z,24.20
2022-08-21T08:15:29.085Z,24.30
2022-08-21T08:17:58.138Z,24.30
2022-08-21T08:20:28.076Z,24.30
2022-08-21T08:22:56.618Z,24.30
2022-08-21T08:25:26.165Z,24.30
2022-08-21T08:27:54.520Z,24.30
2022-08-21T08:30:24.904Z,24.30
2022-08-21T08:32:53.016Z,24.30
2022-08-21T08:35:24.276Z,24.40
2022-08-21T08:37:53.745Z,24.30
2022-08-21T08:40:30.352Z,24.30
2022-08-21T08:42:58.903Z,24.30
2022-08-21T08:45:31.305Z,24.30
2022-08-21T08:48:04.562Z,24.20
2022-08-21T08:50:42.332Z,24.20
2022-08-21T08:53:15.834Z,24.20
2022-08-21T08:55:46.782Z,24.20
2022-08-21T08:58:21.104Z,24.20
2022-08-21T09:00:53.690Z,24.30
2022-08-21T09:03:24.404Z,24.30
2022-08-21T09:06:01.823Z,24.30
2022-08-21T09:08:50.599Z,24.30
2022-08-21T09:11:28.261Z,24.50
2022-08-21T09:14:03.440Z,24.60
2022-08-21T09:16:42.733Z,24.60
2022-08-21T09:19:31.534Z,24.60
2022-08-21T09:22:09.411Z,24.50
2022-08-21T09:24:51.942Z,24.40
2022-08-21T09:27:22.988Z,24.40
2022-08-21T09:29:55.171Z,24.40
2022-08-21T09:32:37.024Z,24.40
2022-08-21T09:35:14.141Z,24.30
2022-08-21T09:37:52.754Z,24.10
2022-08-21T09:40:32.225Z,24.00
2022-08-21T09:43:03.585Z,23.90
2022-08-21T09:45:34.780Z,24.00
2022-08-21T09:48:21.597Z,24.00
2022-08-21T09:50:52.079Z,24.10
2022-08-21T09:53:23.789Z,24.20
2022-08-21T09:56:14.086Z,24.30
2022-08-21T09:58:45.724Z,24.30
2022-08-21T10:01:18.735Z,24.30
2022-08-21T10:04:05.288Z,24.30
2022-08-21T10:06:35.830Z,24.20
2022-08-21T10:09:16.935Z,24.10
2022-08-21T10:11:54.514Z,24.00
2022-08-21T10:14:37.433Z,24.10
2022-08-21T10:17:19.533Z,24.20
2022-08-21T10:19:55.742Z,24.30
2022-08-21T10:22:35.834Z,24.30
2022-08-21T10:25:12.438Z,24.40
2022-08-21T10:27:49.379Z,24.50
2022-08-21T10:30:22.742Z,24.50
2022-08-21T10:33:09.311Z,24.60
2022-08-21T10:35:46.556Z,24.60
2022-08-21T10:39:07.358Z,24.70
2022-08-21T10:41:59.867Z,24.70
2022-08-21T10:44:35.690Z,24.70
2022-08-21T10:47:11.426Z,24.80
2022-08-21T10:49:49.974Z,24.80
2022-08-21T10:52:44.447Z,24.80
2022-08-21T10:55:17.815Z,24.80
2022-08-21T10:57:51.426Z,24.80
2022-08-21T11:00:23.369Z,24.80
2022-08-21T11:02:57.762Z,24.80
2022-08-21T11:05:33.042Z,24.90
2022-08-21T11:08:08.199Z,24.90
2022-08-21T11:10:51.295Z,24.90
2022-08-21T11:13:38.100Z,25.00
2022-08-21T11:16:12.669Z,25.10
2022-08-21T11:18:45.867Z,25.20
2022-08-21T11:21:30.417Z,25.30
2022-08-21T11:24:07.540Z,25.30
2022-08-21T11:26:45.269Z,25.30
2022-08-21T11:29:19.788Z,25.30
2022-08-21T11:32:01.593Z,25.30
2022-08-21T11:34:44.992Z,25.40
2022-08-21T11:37:23.092Z,25.50
2022-08-21T11:40:02.426Z,25.50
2022-08-21T11:42:40.645Z,25.50
2022-08-21T11:45:20.613Z,25.40
2022-08-21T11:48:00.607Z,25.40
2022-08-21T11:50:36.198Z,25.50
2022-08-21T11:53:11.271Z,25.50
2022-08-21T11:55:57.990Z,25.60
2022-08-21T11:58:29.350Z,25.60
2022-08-21T12:01:00.198Z,25.70
2022-08-21T12:03:31.710Z,25.70
2022-08-21T12:06:02.128Z,25.80
2022-08-21T12:08:33.612Z,25.80
2022-08-21T12:11:06.868Z,25.90
2022-08-21T12:13:41.966Z,25.80
2022-08-21T12:16:15.729Z,25.80
2022-08-21T12:18:45.073Z,25.90
2022-08-21T12:21:23.353Z,25.90
2022-08-21T12:24:04.873Z,26.00
2022-08-21T12:26:37.768Z,26.00
2022-08-21T12:29:16.126Z,26.00
2022-08-21T12:31:57.832Z,26.10
2022-08-21T12:34:32.738Z,26.10
2022-08-21T12:37:04.601Z,26.10
2022-08-21T12:39:34.699Z,26.10
2022-08-21T12:42:14.437Z,26.10
2022-08-21T12:44:46.430Z,26.10
2022-08-21T12:47:19.645Z,26.10
2022-08-21T12:49:56.697Z,26.10
2022-08-21T12:52:29.807Z,26.10
2022-08-21T12:54:58.066Z,26.20
2022-08-21T12:57:30.751Z,26.10
2022-08-21T13:00:01.640Z,26.10
2022-08-21T13:02:32.977Z,26.10
2022-08-21T13:05:05.418Z,26.10
2022-08-21T13:07:36.807Z,26.20
2022-08-21T13:10:16.211Z,26.30
2022-08-21T13:12:46.331Z,26.40
2022-08-21T13:15:15.766Z,26.40
2022-08-21T13:17:48.825Z,26.50
2022-08-21T13:20:24.375Z,26.60
2022-08-21T13:22:53.189Z,26.60
2022-08-21T13:25:23.997Z,26.70
2022-08-21T13:28:03.251Z,26.70
2022-08-21T13:30:32.299Z,26.70
2022-08-21T13:33:02.421Z,26.60
2022-08-21T13:35:37.008Z,26.60
2022-08-21T13:38:07.308Z,26.50
2022-08-21T13:40:44.378Z,26.50
2022-08-21T13:43:19.978Z,26.50
2022-08-21T13:45:52.153Z,26.50
2022-08-21T13:48:21.423Z,26.50
2022-08-21T13:50:49.839Z,26.50
2022-08-21T13:53:25.928Z,26.50
2022-08-21T13:55:58.639Z,26.50
2022-08-21T13:58:32.776Z,26.60
2022-08-21T14:01:06.758Z,26.60
2022-08-21T14:03:40.137Z,26.60
2022-08-21T14:06:14.665Z,26.70
2022-08-21T14:08:43.966Z,26.70
2022-08-21T14:11:14.209Z,26.80
2022-08-21T14:13:46.796Z,26.80
2022-08-21T14:16:19.798Z,26.80
2022-08-21T14:18:54.360Z,26.80
2022-08-21T14:21:30.935Z,26.90
2022-08-21T14:24:10.874Z,26.90
2022-08-21T14:26:46.878Z,26.90
2022-08-21T14:29:18.872Z,26.90
2022-08-21T14:31:53.089Z,26.90
2022-08-21T14:34:21.780Z,27.00
2022-08-21T14:36:51.585Z,27.00
2022-08-21T14:39:20.168Z,27.10
2022-08-21T14:41:49.424Z,27.10
2022-08-21T14:44:20.985Z,27.10
2022-08-21T14:46:55.395Z,27.20
2022-08-21T14:49:28.710Z,27.20
2022-08-21T14:51:59.087Z,27.20
2022-08-21T14:54:30.972Z,27.10
2022-08-21T14:57:02.569Z,27.10
2022-08-21T14:59:33.971Z,27.00
2022-08-21T15:02:05.024Z,27.00
2022-08-21T15:04:33.584Z,27.00
2022-08-21T15:07:01.697Z,27.00
2022-08-21T15:09:29.892Z,26.90
2022-08-21T15:12:00.768Z,27.00
2022-08-21T15:14:32.708Z,27.00
2022-08-21T15:17:01.079Z,27.10
2022-08-21T15:19:30.565Z,27.00
2022-08-21T15:21:59.414Z,27.00
2022-08-21T15:24:28.069Z,27.00
2022-08-21T15:26:57.990Z,27.00
2022-08-21T15:29:28.976Z,26.90
2022-08-21T15:32:17.865Z,26.90
2022-08-21T15:34:46.174Z,27.00
2022-08-21T15:37:14.213Z,27.00
2022-08-21T15:39:42.395Z,27.00
2022-08-21T15:42:12.340Z,27.00
2022-08-21T15:44:41.485Z,27.00
2022-08-21T15:47:14.286Z,27.00
2022-08-21T15:49:45.895Z,27.00
2022-08-21T15:52:14.485Z,27.00
2022-08-21T15:54:42.590Z,27.00
2022-08-21T15:57:13.599Z,27.10
2022-08-21T15:59:43.410Z,27.00
2022-08-21T16:02:16.976Z,27.00
2022-08-21T16:04:45.155Z,27.00
2022-08-21T16:07:13.639Z,27.00
2022-08-21T16:09:41.769Z,27.00
2022-08-21T16:12:11.940Z,26.90
2022-08-21T16:14:40.151Z,26.90
2022-08-21T16:17:08.949Z,26.90
2022-08-21T16:19:39.110Z,26.80
2022-08-21T16:22:07.242Z,26.80
2022-08-21T16:24:36.488Z,26.80
2022-08-21T16:27:08.116Z,26.90
2022-08-21T16:29:38.308Z,26.90
2022-08-21T16:32:08.934Z,26.80
2022-08-21T16:34:39.805Z,26.80
2022-08-21T16:37:07.943Z,26.80
2022-08-21T16:39:36.933Z,26.70
2022-08-21T16:42:06.251Z,26.60
2022-08-21T16:44:37.341Z,26.60
2022-08-21T16:47:05.984Z,26.50
2022-08-21T16:49:34.043Z,26.40
2022-08-21T16:52:04.039Z,26.30
2022-08-21T16:54:32.112Z,26.10
2022-08-21T16:57:00.982Z,26.10
2022-08-21T16:59:29.136Z,26.00
2022-08-21T17:01:57.532Z,25.90
2022-08-21T17:04:25.939Z,25.90
2022-08-21T17:06:54.026Z,25.80
2022-08-21T17:09:23.533Z,25.80
2022-08-21T17:11:51.611Z,25.80
2022-08-21T17:14:24.490Z,25.80
2022-08-21T17:16:56.418Z,25.80
2022-08-21T17:19:25.335Z,25.70
2022-08-21T17:21:53.377Z,25.70
2022-08-21T17:24:22.935Z,25.50
2022-08-21T17:26:51.649Z,25.40
2022-08-21T17:29:25.625Z,25.30
2022-08-21T17:31:53.915Z,25.20
2022-08-21T17:34:22.565Z,25.10
2022-08-21T17:36:50.643Z,25.00
2022-08-21T17:39:22.478Z,25.00
2022-08-21T17:41:58.110Z,24.90
2022-08-21T17:44:26.940Z,24.90
2022-08-21T17:46:55.197Z,24.80
2022-08-21T17:49:23.359Z,24.70
2022-08-21T17:51:51.611Z,24.60
2022-08-21T17:54:19.744Z,24.50
2022-08-21T17:56:48.212Z,24.40
2022-08-21T17:59:17.849Z,24.30
2022-08-21T18:01:48.155Z,24.20
2022-08-21T18:04:16.616Z,24.20
2022-08-21T18:06:45.835Z,24.20
2022-08-21T18:09:14.689Z,24.10
2022-08-21T18:11:44.110Z,24.00
2022-08-21T18:14:13.292Z,24.00
2022-08-21T18:16:43.402Z,23.90
2022-08-21T18:19:15.935Z,23.80
2022-08-21T18:21:44.581Z,23.80
2022-08-21T18:24:12.797Z,23.70
2022-08-21T18:26:42.915Z,23.60
2022-08-21T18:29:14.076Z,23.60
2022-08-21T18:31:46.356Z,23.50
2022-08-21T18:34:23.348Z,23.40
2022-08-21T18:36:52.979Z,23.40
2022-08-21T18:39:36.353Z,23.30
2022-08-21T18:42:09.983Z,23.20
2022-08-21T18:44:38.806Z,23.10
2022-08-21T18:47:12.267Z,23.00
2022-08-21T18:49:41.099Z,22.90
2022-08-21T18:52:10.190Z,22.90
2022-08-21T18:54:46.025Z,22.80
2022-08-21T18:57:19.476Z,22.70
2022-08-21T18:59:49.468Z,22.70
2022-08-21T19:02:19.200Z,22.70
2022-08-21T19:04:48.194Z,22.60
2022-08-21T19:07:17.045Z,22.50
2022-08-21T19:10:01.926Z,22.50
2022-08-21T19:12:34.798Z,22.50
2022-08-21T19:15:03.322Z,22.40
2022-08-21T19:17:33.340Z,22.40
2022-08-21T19:20:07.154Z,22.30
2022-08-21T19:22:35.270Z,22.30
2022-08-21T19:25:05.382Z,22.20
2022-08-21T19:27:35.402Z,22.20
2022-08-21T19:30:05.433Z,22.10
2022-08-21T19:32:35.528Z,22.10
2022-08-21T19:35:04.681Z,22.10
2022-08-21T19:37:32.792Z,22.10
2022-08-21T19:40:04.073Z,22.00
2022-08-21T19:42:32.465Z,22.00
2022-08-21T19:45:00.678Z,21.90
2022-08-21T19:47:31.304Z,21.90
2022-08-21T19:50:17.654Z,21.90
2022-08-21T19:52:51.558Z,21.80
2022-08-21T19:55:20.080Z,21.80
2022-08-21T19:57:51.686Z,21.80
2022-08-21T20:00:19.845Z,21.70
2022-08-21T20:02:48.429Z,21.70
2022-08-21T20:05:18.399Z,21.70
2022-08-21T20:07:46.978Z,21.60
2022-08-21T20:10:15.499Z,21.60
2022-08-21T20:12:45.720Z,21.50
2022-08-21T20:15:24.185Z,21.50
2022-08-21T20:17:53.356Z,21.50
2022-08-21T20:20:22.847Z,21.50
2022-08-21T20:22:50.921Z,21.50
2022-08-21T20:25:21.205Z,21.40
2022-08-21T20:27:49.670Z,21.40
2022-08-21T20:30:22.711Z,21.40
2022-08-21T20:32:51.341Z,21.40
2022-08-21T20:35:19.833Z,21.40
2022-08-21T20:37:58.513Z,21.30
2022-08-21T20:40:32.893Z,21.30
2022-08-21T20:43:02.507Z,21.30
2022-08-21T20:45:34.394Z,21.30
2022-08-21T20:48:06.025Z,21.20
2022-08-21T20:50:38.441Z,21.20
2022-08-21T20:53:28.054Z,21.20
2022-08-21T20:56:15.851Z,21.20
2022-08-21T20:58:49.797Z,21.10
2022-08-21T21:01:19.235Z,21.10
2022-08-21T21:03:52.612Z,21.00
2022-08-21T21:06:27.274Z,21.00
2022-08-21T21:09:02.389Z,21.00
2022-08-21T21:11:35.066Z,20.90
2022-08-21T21:14:11.471Z,20.90
2022-08-21T21:16:50.752Z,20.90
2022-08-21T21:19:27.712Z,20.80
2022-08-21T21:22:01.629Z,20.80
2022-08-21T21:24:37.707Z,20.70
2022-08-21T21:27:12.281Z,20.70
2022-08-21T21:29:44.159Z,20.70
2022-08-21T21:32:17.869Z,20.70
2022-08-21T21:34:51.063Z,20.60
2022-08-21T21:37:26.050Z,20.60
2022-08-21T21:40:04.568Z,20.60
2022-08-21T21:42:43.175Z,20.60
2022-08-21T21:45:21.825Z,20.60
2022-08-21T21:48:03.433Z,20.60
2022-08-21T21:50:46.293Z,20.50
2022-08-21T21:53:27.380Z,20.50
2022-08-21T21:56:14.106Z,20.50
2022-08-21T21:58:57.977Z,20.40
2022-08-21T22:01:33.302Z,20.40
2022-08-21T22:04:06.110Z,20.40
2022-08-21T22:06:43.316Z,20.30
2022-08-21T22:09:19.527Z,20.40
2022-08-21T22:12:07.345Z,20.30
2022-08-21T22:14:39.697Z,20.30
2022-08-21T22:17:14.691Z,20.30
2022-08-21T22:19:44.023Z,20.30
2022-08-21T22:22:16.713Z,20.30
2022-08-21T22:24:48.568Z,20.30
2022-08-21T22:27:23.039Z,20.20
2022-08-21T22:29:57.461Z,20.30
2022-08-21T22:32:28.516Z,20.30
2022-08-21T22:35:12.195Z,20.20
2022-08-21T22:37:44.810Z,20.20
2022-08-21T22:40:23.932Z,20.20
2022-08-21T22:43:07.202Z,20.20
2022-08-21T22:45:54.002Z,20.20
2022-08-21T22:48:24.469Z,20.20
2022-08-21T22:50:58.260Z,20.20
2022-08-21T22:53:29.813Z,20.20
2022-08-21T22:56:00.369Z,20.20
2022-08-21T22:58:32.944Z,20.20
2022-08-21T23:01:05.217Z,20.10
2022-08-21T23:03:42.478Z,20.10
2022-08-21T23:06:26.413Z,20.10
2022-08-21T23:08:55.371Z,20.10
2022-08-21T23:11:30.393Z,20.10
2022-08-21T23:14:01.592Z,20.10
2022-08-21T23:16:47.253Z,20.00
2022-08-21T23:19:23.326Z,20.00
2022-08-21T23:21:55.511Z,20.00
2022-08-21T23:27:52.369Z,20.00
2022-08-21T23:30:27.384Z,20.00
2022-08-21T23:33:09.335Z,19.90
2022-08-21T23:36:04.221Z,19.90
2022-08-21T23:38:51.308Z,19.90
2022-08-21T23:41:34.125Z,19.90
2022-08-21T23:44:12.239Z,19.80
2022-08-21T23:46:53.593Z,19.80
2022-08-21T23:49:37.163Z,19.80
2022-08-21T23:52:18.931Z,19.80
2022-08-21T23:55:04.556Z,19.80
2022-08-21T23:57:48.198Z,19.80
